This is the latest recevied weather packets stored in our database for station/object OE-11073. If no packets are shown the sender has not sent any weather packets the latest 10 day(s).
| Time | Temp. | Humidity | Pressure | Rain* | Wind** | Luminosity | Snow |
|---|---|---|---|---|---|---|---|
| 1788043283 | 14.44° C | 88% | - | 0 mm | - | 0 W/m² | - |
| 1788042909 | 14.44° C | 87% | - | 0 mm | - | 0 W/m² | - |
| 1788042309 | 14.44° C | 88% | - | 0 mm | - | 0 W/m² | - |
| 1788041483 | 15° C | 84% | - | 0 mm | - | 0 W/m² | - |
| 1788041110 | 14.44° C | 88% | - | 0 mm | - | 0 W/m² | - |
| 1788040510 | 14.44° C | 86% | - | 0 mm | - | 0 W/m² | - |
| 1788039683 | 13.89° C | 89% | - | 0 mm | - | 0 W/m² | - |
| 1788039309 | 13.89° C | 89% | - | 0 mm | - | 0 W/m² | - |
| 1788038710 | 13.89° C | 86% | - | 0 mm | - | 0 W/m² | - |
| 1788037883 | 14.44° C | 83% | - | 0 mm | - | 0 W/m² | - |
| 1788037509 | 15.56° C | 78% | - | 0 mm | - | 0 W/m² | - |
| 1788036910 | 15.56° C | 78% | - | 0 mm | - | 0 W/m² | - |
| 1788036083 | 13.33° C | 88% | - | 0 mm | - | 0 W/m² | - |
| 1788035709 | 14.44° C | 87% | - | 0 mm | - | 0 W/m² | - |
| 1788035110 | 13.89° C | 86% | - | 0 mm | - | 0 W/m² | - |
| 1788034283 | 14.44° C | 85% | - | 0 mm | - | 0 W/m² | - |
| 1788033910 | 14.44° C | 87% | - | 0 mm | - | 0 W/m² | - |
| 1788033310 | 15° C | 84% | - | 0 mm | - | 0 W/m² | - |
| 1788032483 | 15° C | 83% | - | 0 mm | - | 0 W/m² | - |
| 1788032110 | 15.56° C | 83% | - | 0 mm | - | 0 W/m² | - |
| 1788031510 | 16.11° C | 80% | - | 0 mm | - | 0 W/m² | - |
| 1788030683 | 16.67° C | 78% | - | 0 mm | - | 0 W/m² | - |
| 1788030310 | 17.22° C | 74% | - | 0 mm | - | 0 W/m² | - |
| 1788029710 | 16.67° C | 78% | - | 0 mm | - | 0 W/m² | - |
| 1788028884 | 16.67° C | 81% | - | 0 mm | - | 0 W/m² | - |
* Rain latest hour (hover to see other rain measurements)
** Current wind speed in m/s (hover to see current wind gust speed)